Time;durP1;ratioP1;P1;durP2;ratioP2;P2;SDS_P1;SDS_P2;PMS_P1;PMS_P2;Temp;Humidity;BMP_temperature;BMP_pressure;BME280_temperature;BME280_humidity;BME280_pressure;Samples;Min_cycle;Max_cycle;Signal;HPM_P1;HPM_P2
2021/10/26 00:00:34;;;;;;;0.00;0.00;;;;;;;5.29;71.84;100305.81;5028800;28;20056;-76
2021/10/26 00:02:59;;;;;;;0.00;0.00;;;;;;;5.26;72.03;100306.22;5015701;28;20064;-77
2021/10/26 00:05:25;;;;;;;0.00;0.00;;;;;;;5.24;71.84;100309.06;5009947;28;20053;-81
2021/10/26 00:07:50;;;;;;;0.13;0.13;;;;;;;5.26;72.05;100306.22;5009782;28;20474;-81
2021/10/26 00:10:16;;;;;;;0.00;0.00;;;;;;;5.24;71.89;100295.00;5009852;28;20038;-77
2021/10/26 00:12:41;;;;;;;0.00;0.00;;;;;;;5.18;71.63;100291.34;5009640;28;20034;-80
2021/10/26 00:15:08;;;;;;;0.00;0.00;;;;;;;5.20;71.24;100291.97;5018014;28;20040;-79
2021/10/26 00:17:34;;;;;;;0.00;0.00;;;;;;;5.11;71.78;100279.94;5033472;28;20090;-80
2021/10/26 00:19:59;;;;;;;0.00;0.00;;;;;;;5.16;71.38;100295.25;5033310;28;20132;-75
2021/10/26 00:22:24;;;;;;;0.10;0.10;;;;;;;5.14;71.55;100295.47;5034650;28;20037;-76
2021/10/26 00:24:50;;;;;;;0.00;0.00;;;;;;;5.10;71.72;100295.06;5033222;28;20541;-80
2021/10/26 00:27:16;;;;;;;0.00;0.00;;;;;;;5.08;71.79;100281.19;5033590;28;20029;-83
2021/10/26 00:29:42;;;;;;;0.00;0.00;;;;;;;5.02;71.89;100267.97;5033042;28;20044;-83
2021/10/26 00:32:07;;;;;;;0.00;0.00;;;;;;;5.02;71.61;100275.91;5033849;28;20029;-86
2021/10/26 00:34:33;;;;;;;0.00;0.00;;;;;;;5.00;71.89;100268.16;5034441;28;20057;-86
2021/10/26 00:36:59;;;;;;;0.03;0.03;;;;;;;4.87;71.85;100253.13;5032905;28;20122;-75
2021/10/26 00:39:25;;;;;;;0.00;0.00;;;;;;;4.86;71.63;100262.09;5032704;28;20091;-75
2021/10/26 00:41:50;;;;;;;0.00;0.00;;;;;;;4.85;71.32;100270.25;5032892;28;20045;-86
2021/10/26 00:44:16;;;;;;;0.20;0.20;;;;;;;4.79;72.09;100261.28;5032874;28;20033;-82
2021/10/26 00:46:41;;;;;;;0.00;0.00;;;;;;;4.81;71.96;100267.19;5032960;28;20025;-87
2021/10/26 00:49:11;;;;;;;0.00;0.00;;;;;;;4.79;72.08;100259.44;5033200;28;20057;-82
2021/10/26 00:51:39;;;;;;;0.00;0.00;;;;;;;4.77;72.18;100255.38;5032701;28;20029;-80
2021/10/26 00:54:06;;;;;;;0.00;0.00;;;;;;;4.73;72.21;100241.72;5033033;28;20057;-83
2021/10/26 00:56:32;;;;;;;0.00;0.00;;;;;;;4.74;72.31;100248.66;5033701;28;20032;-88
2021/10/26 01:02:19;;;;;;;0.00;0.00;;;;;;;4.71;72.21;100249.09;5013909;28;20040;-88
2021/10/26 01:04:46;;;;;;;0.00;0.00;;;;;;;4.71;72.58;100246.44;5013821;28;20038;-75
2021/10/26 01:07:12;;;;;;;0.00;0.00;;;;;;;4.65;72.57;100240.13;5031140;28;20129;-76
2021/10/26 01:09:38;;;;;;;0.00;0.00;;;;;;;4.62;73.25;100237.06;5032380;28;20036;-74
2021/10/26 01:12:05;;;;;;;0.00;0.00;;;;;;;4.65;72.97;100234.81;5032558;28;20516;-76
2021/10/26 01:14:31;;;;;;;0.00;0.00;;;;;;;4.63;72.95;100226.25;5032102;28;20067;-75
2021/10/26 01:17:10;;;;;;;0.00;0.00;;;;;;;4.63;73.06;100223.59;5033461;28;20061;-77
2021/10/26 01:19:49;;;;;;;0.00;0.00;;;;;;;4.66;72.96;100230.31;5031823;28;20060;-82
2021/10/26 01:22:16;;;;;;;;;;;;;;;4.65;73.02;100226.88;5032523;28;20040;-81
2021/10/26 01:24:41;;;;;;;0.00;0.00;;;;;;;4.62;72.94;100224.63;5032057;28;19972;-81
2021/10/26 01:27:07;;;;;;;0.10;0.10;;;;;;;4.58;72.76;100219.97;5032103;28;20045;-79
2021/10/26 01:29:35;;;;;;;0.00;0.00;;;;;;;4.54;72.84;100208.13;5032215;28;20029;-74
2021/10/26 01:32:03;;;;;;;0.00;0.00;;;;;;;4.56;73.25;100214.84;5031832;28;20079;-76
2021/10/26 01:34:29;;;;;;;0.00;0.00;;;;;;;4.56;72.98;100214.84;5033543;28;20034;-73
2021/10/26 01:36:58;;;;;;;0.00;0.00;;;;;;;4.56;72.88;100211.41;5031229;28;20130;-79
2021/10/26 01:39:23;;;;;;;0.00;0.00;;;;;;;4.49;73.11;100206.94;5031842;28;20115;-74
2021/10/26 01:41:49;;;;;;;0.00;0.00;;;;;;;4.52;72.78;100215.47;5031384;28;20089;-74
2021/10/26 01:44:15;;;;;;;0.00;0.00;;;;;;;4.47;72.58;100205.50;5032013;28;20036;-81
2021/10/26 01:46:41;;;;;;;0.00;0.00;;;;;;;4.43;72.47;100213.06;5030918;28;20040;-77
2021/10/26 01:49:07;;;;;;;0.00;0.00;;;;;;;4.39;72.99;100206.53;5031693;28;20037;-75
2021/10/26 01:51:32;;;;;;;0.00;0.00;;;;;;;4.35;72.71;100199.22;5031844;28;20409;-82
2021/10/26 01:53:58;;;;;;;0.00;0.00;;;;;;;4.31;72.88;100207.56;5031688;28;20064;-77
2021/10/26 01:56:23;;;;;;;0.00;0.00;;;;;;;4.25;73.10;100200.44;5031804;28;20033;-82
2021/10/26 01:58:49;;;;;;;0.00;0.00;;;;;;;4.22;73.58;100202.69;5031471;28;20034;-85
2021/10/26 02:01:15;;;;;;;0.00;0.00;;;;;;;4.13;73.59;100200.25;5034368;28;20037;-83
2021/10/26 02:03:40;;;;;;;0.00;0.00;;;;;;;4.06;73.50;100196.78;5030945;28;20083;-74
2021/10/26 02:06:05;;;;;;;0.00;0.00;;;;;;;4.08;73.50;100204.53;5031389;28;20025;-84
2021/10/26 02:08:31;;;;;;;0.00;0.00;;;;;;;4.00;73.55;100197.59;5031370;28;20029;-82
2021/10/26 02:10:57;;;;;;;0.00;0.00;;;;;;;3.98;73.48;100194.38;5031264;28;20090;-76
2021/10/26 02:13:22;;;;;;;0.00;0.00;;;;;;;3.93;73.88;100202.91;5031248;28;20509;-87
2021/10/26 02:15:48;;;;;;;0.00;0.00;;;;;;;3.94;74.01;100195.78;5031207;28;20415;-83
2021/10/26 02:18:13;;;;;;;0.00;0.00;;;;;;;3.93;74.08;100204.72;5030825;28;20460;-84
2021/10/26 02:20:39;;;;;;;0.00;0.00;;;;;;;3.90;74.15;100202.50;5030931;28;20037;-80
2021/10/26 02:23:04;;;;;;;0.00;0.00;;;;;;;3.83;74.41;100195.38;5031027;28;20406;-76
2021/10/26 02:25:31;;;;;;;0.00;0.00;;;;;;;3.85;74.38;100198.59;5030814;28;20609;-79
2021/10/26 02:27:57;;;;;;;0.00;0.00;;;;;;;3.84;74.49;100198.81;5030868;28;20486;-82
2021/10/26 02:30:22;;;;;;;0.00;0.00;;;;;;;3.81;75.05;100200.03;5030881;28;20040;-81
2021/10/26 02:32:48;;;;;;;0.00;0.00;;;;;;;3.75;75.13;100190.28;5030787;28;20025;-79
2021/10/26 02:35:13;;;;;;;0.00;0.00;;;;;;;3.77;75.18;100200.66;5032351;28;20560;-76
2021/10/26 02:37:39;;;;;;;0.00;0.00;;;;;;;3.68;75.52;100184.97;5030734;28;20040;-86
2021/10/26 02:40:05;;;;;;;0.00;0.00;;;;;;;3.72;75.84;100195.16;5030813;28;20036;-74
2021/10/26 02:42:31;;;;;;;0.00;0.00;;;;;;;3.72;75.87;100197.81;5030241;28;20064;-76
2021/10/26 02:44:56;;;;;;;0.00;0.00;;;;;;;3.68;75.72;100184.97;5030493;28;20021;-73
2021/10/26 02:47:22;;;;;;;0.00;0.00;;;;;;;3.72;76.27;100189.84;5030718;28;20474;-77
2021/10/26 02:49:47;;;;;;;0.00;0.00;;;;;;;3.71;76.07;100185.59;5030594;28;20036;-75
2021/10/26 02:52:13;;;;;;;0.00;0.00;;;;;;;3.69;76.23;100181.31;5030756;28;20502;-75
2021/10/26 02:54:38;;;;;;;0.00;0.00;;;;;;;3.71;76.37;100188.22;5030487;28;20037;-76
2021/10/26 02:57:04;;;;;;;0.00;0.00;;;;;;;3.69;76.43;100188.44;5028578;28;20036;-84
2021/10/26 02:59:29;;;;;;;1.45;0.57;;;;;;;3.66;76.43;100181.72;5030392;28;20075;-75
2021/10/26 03:01:55;;;;;;;0.00;0.00;;;;;;;3.63;76.74;100173.38;5030301;28;20482;-75
2021/10/26 03:04:20;;;;;;;0.00;0.00;;;;;;;3.72;76.92;100187.22;5031091;28;20491;-80
2021/10/26 03:06:46;;;;;;;0.10;0.10;;;;;;;3.71;77.17;100182.94;5030124;28;20561;-79
2021/10/26 03:09:12;;;;;;;0.00;0.00;;;;;;;3.75;77.32;100184.97;5030604;28;20344;-85
2021/10/26 03:11:38;;;;;;;0.00;0.00;;;;;;;3.69;77.80;100172.56;5030252;28;20040;-76
2021/10/26 03:14:05;;;;;;;0.00;0.00;;;;;;;3.73;77.89;100184.34;5030323;28;20417;-79
2021/10/26 03:16:31;;;;;;;0.00;0.00;;;;;;;3.66;78.23;100171.13;5030053;28;20034;-77
2021/10/26 03:18:57;;;;;;;0.00;0.00;;;;;;;3.80;77.89;100185.19;5030132;28;20513;-81
2021/10/26 03:21:22;;;;;;;0.00;0.00;;;;;;;3.79;78.16;100182.75;5030016;28;20033;-75
2021/10/26 03:23:48;;;;;;;0.00;0.00;;;;;;;3.79;78.39;100174.81;5029936;28;20036;-79
2021/10/26 03:26:13;;;;;;;0.00;0.00;;;;;;;3.83;78.47;100181.31;5030128;28;20095;-82
2021/10/26 03:28:39;;;;;;;0.00;0.00;;;;;;;3.83;78.53;100173.38;5030137;28;20030;-74
2021/10/26 03:31:05;;;;;;;0.00;0.00;;;;;;;3.83;78.46;100160.97;5029357;28;20517;-76
2021/10/26 03:33:31;;;;;;;0.00;0.00;;;;;;;3.88;78.59;100172.75;5029039;28;20033;-77
2021/10/26 03:35:59;;;;;;;0.00;0.00;;;;;;;3.88;78.38;100167.47;5029009;28;20207;-78
2021/10/26 03:38:24;;;;;;;0.00;0.00;;;;;;;3.87;78.31;100171.97;5016860;28;20029;-73
2021/10/26 03:40:50;;;;;;;0.00;0.00;;;;;;;3.81;78.47;100165.66;5044559;28;20386;-76
2021/10/26 03:43:15;;;;;;;0.00;0.00;;;;;;;3.84;78.95;100175.00;5010218;28;20123;-72
2021/10/26 03:45:40;;;;;;;0.00;0.00;;;;;;;3.83;78.63;100174.19;5011111;28;20034;-72
2021/10/26 03:48:08;;;;;;;0.00;0.00;;;;;;;3.90;78.78;100176.84;5020006;28;20037;-81
2021/10/26 03:50:33;;;;;;;0.00;0.00;;;;;;;3.87;78.71;100174.63;5028424;28;20504;-75
2021/10/26 03:52:59;;;;;;;0.00;0.00;;;;;;;3.85;78.53;100176.63;5029592;28;20034;-74
2021/10/26 03:55:25;;;;;;;0.10;0.10;;;;;;;3.87;78.86;100168.47;5046382;28;20029;-72
2021/10/26 03:57:50;;;;;;;0.00;0.00;;;;;;;3.89;78.95;100169.09;5030635;28;20032;-82
2021/10/26 04:00:16;;;;;;;0.00;0.00;;;;;;;3.85;78.77;100163.41;5029843;28;20036;-75
2021/10/26 04:02:42;;;;;;;0.00;0.00;;;;;;;3.88;78.59;100157.69;5046022;28;20049;-83
2021/10/26 04:05:20;;;;;;;0.00;0.00;;;;;;;3.84;78.41;100151.19;5045726;28;20041;-74
2021/10/26 04:07:54;;;;;;;0.00;0.00;;;;;;;3.90;78.42;100158.31;5030885;28;20032;-74
2021/10/26 04:10:32;;;;;;;0.03;0.03;;;;;;;3.88;78.36;100159.53;5028864;28;20047;-73
2021/10/26 04:12:59;;;;;;;0.00;0.00;;;;;;;3.81;78.71;100154.25;5028100;28;20021;-77
2021/10/26 04:15:24;;;;;;;0.43;0.43;;;;;;;3.83;78.56;100160.97;5029060;28;20487;-86
2021/10/26 04:17:49;;;;;;;5.15;0.75;;;;;;;3.83;78.88;100160.97;5027812;28;20033;-78
2021/10/26 04:20:15;;;;;;;0.00;0.00;;;;;;;3.80;78.96;100148.13;5045174;28;20041;-76
2021/10/26 04:22:40;;;;;;;0.00;0.00;;;;;;;3.76;78.86;100146.09;5029183;28;20038;-77
2021/10/26 04:25:06;;;;;;;0.00;0.00;;;;;;;3.82;78.74;100147.91;5028613;28;20116;-76
2021/10/26 04:27:31;;;;;;;0.20;0.20;;;;;;;3.90;79.00;100162.81;5028897;28;20022;-83
2021/10/26 04:29:57;;;;;;;0.00;0.00;;;;;;;3.84;79.15;100153.84;5027212;28;20029;-84
2021/10/26 04:32:22;;;;;;;0.00;0.00;;;;;;;3.93;79.01;100163.22;5028720;28;20099;-84
2021/10/26 04:34:49;;;;;;;0.00;0.00;;;;;;;3.96;78.77;100164.63;5028606;28;20026;-83
2021/10/26 04:37:14;;;;;;;0.00;0.00;;;;;;;3.94;78.84;100154.25;5029204;28;20030;-84
2021/10/26 04:39:40;;;;;;;0.00;0.00;;;;;;;3.94;78.71;100148.97;5029208;28;20029;-84
2021/10/26 04:42:09;;;;;;;0.00;0.00;;;;;;;3.97;78.66;100151.19;5028736;28;20135;-84
2021/10/26 04:44:36;;;;;;;0.00;0.00;;;;;;;3.98;78.68;100149.38;5028773;28;20112;-84
2021/10/26 04:47:02;;;;;;;0.00;0.00;;;;;;;3.94;78.84;100140.19;5028892;28;20025;-84
2021/10/26 04:49:28;;;;;;;0.00;0.00;;;;;;;3.97;78.70;100143.25;5028394;28;20056;-84
2021/10/26 04:51:53;;;;;;;0.00;0.00;;;;;;;3.93;79.07;100141.19;5028189;28;20486;-84
2021/10/26 04:54:19;;;;;;;0.00;0.00;;;;;;;4.03;78.74;100151.38;5028945;28;20034;-84
2021/10/26 04:56:44;;;;;;;0.00;0.00;;;;;;;4.03;79.03;100143.44;5029025;28;20038;-84
2021/10/26 04:59:10;;;;;;;0.00;0.00;;;;;;;4.00;78.48;100142.00;5028750;28;20026;-84
2021/10/26 05:01:35;;;;;;;0.00;0.00;;;;;;;4.04;78.88;100151.19;5030615;28;20033;-84
2021/10/26 05:04:01;;;;;;;0.00;0.00;;;;;;;4.10;78.87;100155.66;5032388;28;20036;-83
2021/10/26 05:06:26;;;;;;;0.38;0.38;;;;;;;4.09;78.95;100150.56;5032594;28;20116;-84
2021/10/26 05:08:54;;;;;;;0.00;0.00;;;;;;;4.20;78.96;100162.34;5032394;28;20045;-84
2021/10/26 05:11:20;;;;;;;0.00;0.00;;;;;;;4.27;79.10;100155.22;5032773;28;20025;-84
2021/10/26 05:13:46;;;;;;;0.00;0.00;;;;;;;4.35;79.07;100162.94;5032244;28;20552;-84
2021/10/26 05:16:12;;;;;;;0.00;0.00;;;;;;;4.33;78.75;100168.47;5032395;28;20030;-84
2021/10/26 05:18:41;;;;;;;0.00;0.00;;;;;;;4.27;78.35;100152.56;5032332;28;20072;-84
2021/10/26 05:21:10;;;;;;;0.00;0.00;;;;;;;4.33;78.27;100171.09;5032161;28;20111;-85
2021/10/26 05:23:36;;;;;;;0.00;0.00;;;;;;;4.37;78.33;100176.81;5032389;28;20509;-85
2021/10/26 05:26:02;;;;;;;0.20;0.20;;;;;;;4.41;78.42;100177.19;5032026;28;20075;-84
2021/10/26 05:28:28;;;;;;;0.00;0.00;;;;;;;4.41;78.21;100163.97;5032230;28;20029;-84
2021/10/26 05:30:53;;;;;;;0.10;0.10;;;;;;;4.43;78.42;100175.13;5031935;28;20040;-84
2021/10/26 05:33:19;;;;;;;0.05;0.05;;;;;;;4.53;78.48;100185.31;5032146;28;20478;-85
2021/10/26 05:35:44;;;;;;;0.03;0.03;;;;;;;4.55;79.01;100176.13;5031873;28;20037;-85
2021/10/26 05:38:10;;;;;;;0.20;0.20;;;;;;;4.67;78.94;100181.59;5032429;28;20025;-85
2021/10/26 05:40:36;;;;;;;0.00;0.00;;;;;;;4.81;79.02;100177.88;5032136;28;20037;-85
2021/10/26 05:43:02;;;;;;;0.00;0.00;;;;;;;4.96;78.88;100176.81;5031420;28;20188;-85
2021/10/26 05:45:28;;;;;;;0.10;0.10;;;;;;;5.14;79.80;100176.13;5031939;28;20120;-84
2021/10/26 05:47:53;;;;;;;1.23;0.70;;;;;;;5.29;78.06;100173.97;5031658;28;20506;-84
2021/10/26 05:50:19;;;;;;;0.00;0.00;;;;;;;5.45;77.56;100174.50;5031399;28;20029;-84
2021/10/26 05:52:44;;;;;;;0.00;0.00;;;;;;;5.57;76.49;100169.34;5031756;28;20044;-84
2021/10/26 05:55:10;;;;;;;0.00;0.00;;;;;;;5.80;76.59;100182.03;5031540;28;20130;-84
2021/10/26 05:57:36;;;;;;;0.00;0.00;;;;;;;5.95;75.58;100179.03;5031644;28;20482;-84
2021/10/26 06:00:03;;;;;;;0.10;0.10;;;;;;;6.04;75.14;100175.13;5031355;28;20072;-84
2021/10/26 06:02:32;;;;;;;0.00;0.00;;;;;;;6.16;75.25;100179.72;5031427;28;20433;-84
2021/10/26 06:04:58;;;;;;;0.05;0.05;;;;;;;6.27;75.55;100175.53;5031108;28;20415;-84
2021/10/26 06:07:23;;;;;;;0.00;0.00;;;;;;;6.36;75.41;100174.19;5031511;28;20030;-84
2021/10/26 06:09:49;;;;;;;0.08;0.08;;;;;;;6.49;74.81;100181.22;5031450;28;20040;-84
2021/10/26 06:12:22;;;;;;;0.00;0.00;;;;;;;6.55;74.65;100183.84;5030847;28;20479;-84
2021/10/26 06:14:48;;;;;;;0.00;0.00;;;;;;;6.69;75.61;100189.81;5031277;28;20029;-83
2021/10/26 06:17:13;;;;;;;0.00;0.00;;;;;;;6.72;76.03;100177.91;5031256;28;20033;-84
2021/10/26 06:19:39;;;;;;;0.00;0.00;;;;;;;6.96;76.28;100186.81;5031494;28;20033;-85
2021/10/26 06:22:04;;;;;;;0.10;0.10;;;;;;;7.16;75.74;100194.53;5031257;28;20240;-85
2021/10/26 06:24:30;;;;;;;0.10;0.10;;;;;;;7.26;75.02;100177.22;5031137;28;20107;-85
2021/10/26 06:26:55;;;;;;;0.10;0.10;;;;;;;7.37;75.45;100185.28;5031025;28;20037;-84
2021/10/26 06:29:21;;;;;;;0.00;0.00;;;;;;;7.57;75.44;100186.81;5031195;28;20064;-85
2021/10/26 06:31:46;;;;;;;0.00;0.00;;;;;;;7.66;74.92;100182.78;5031089;28;20033;-85
2021/10/26 06:34:12;;;;;;;0.00;0.00;;;;;;;7.74;74.70;100183.50;5030884;28;20033;-84
2021/10/26 06:36:37;;;;;;;0.17;0.17;;;;;;;7.73;74.92;100168.59;5031092;28;20482;-84
2021/10/26 06:39:03;;;;;;;0.90;0.90;;;;;;;7.96;74.74;100183.78;5030861;28;20025;-85
2021/10/26 06:41:29;;;;;;;0.08;0.08;;;;;;;8.02;74.27;100185.53;5030728;28;20426;-85
2021/10/26 06:43:55;;;;;;;0.00;0.00;;;;;;;8.12;73.91;100196.41;5030704;28;20055;-85
2021/10/26 06:46:21;;;;;;;0.00;0.00;;;;;;;8.13;74.06;100187.38;5030900;28;20033;-85
2021/10/26 06:48:47;;;;;;;0.00;0.00;;;;;;;8.25;73.88;100179.38;5030821;28;20032;-85
2021/10/26 06:51:12;;;;;;;1.67;1.27;;;;;;;8.39;73.35;100187.94;5030570;28;20479;-85
2021/10/26 06:53:39;;;;;;;0.00;0.00;;;;;;;8.47;73.18;100194.78;5030427;28;20549;-85
2021/10/26 06:56:10;;;;;;;0.00;0.00;;;;;;;8.59;72.76;100181.44;5030333;28;20025;-85
2021/10/26 06:58:35;;;;;;;0.00;0.00;;;;;;;8.70;72.20;100183.28;5030728;28;20434;-85
2021/10/26 07:01:06;;;;;;;0.03;0.03;;;;;;;8.84;71.34;100189.19;5030444;28;20036;-85
2021/10/26 07:03:32;;;;;;;0.00;0.00;;;;;;;8.92;70.97;100185.31;5030515;28;20021;-85
2021/10/26 07:05:57;;;;;;;0.00;0.00;;;;;;;9.01;70.46;100177.75;5030299;28;20029;-85
2021/10/26 07:08:23;;;;;;;0.00;0.00;;;;;;;9.16;70.22;100188.72;5032107;28;20079;-85
2021/10/26 07:10:48;;;;;;;0.00;0.00;;;;;;;9.25;69.85;100191.81;5030296;28;20128;-86
2021/10/26 07:13:14;;;;;;;0.00;0.00;;;;;;;9.31;69.94;100188.19;5029785;28;20116;-83
2021/10/26 07:15:39;;;;;;;0.00;0.00;;;;;;;9.38;69.40;100185.38;5030243;28;20037;-83
2021/10/26 07:18:05;;;;;;;0.00;0.00;;;;;;;9.51;68.80;100186.94;5029971;28;20039;-83
2021/10/26 07:20:30;;;;;;;0.05;0.05;;;;;;;9.54;68.80;100184.59;5030134;28;20040;-85
2021/10/26 07:22:56;;;;;;;0.00;0.00;;;;;;;9.61;68.81;100174.56;5029812;28;20112;-83
2021/10/26 07:25:22;;;;;;;0.00;0.00;;;;;;;9.69;68.83;100169.88;5029840;28;20030;-84
2021/10/26 07:27:51;;;;;;;0.00;0.00;;;;;;;9.72;68.51;100170.19;5030103;28;20021;-84
2021/10/26 07:30:16;;;;;;;0.00;0.00;;;;;;;9.76;68.08;100179.38;5029646;28;20025;-85
2021/10/26 07:32:42;;;;;;;0.00;0.00;;;;;;;9.73;67.93;100173.69;5030062;28;20029;-84
2021/10/26 07:35:09;;;;;;;0.00;0.00;;;;;;;9.72;67.66;100170.19;5029596;28;20021;-84
2021/10/26 07:37:38;;;;;;;0.00;0.00;;;;;;;9.82;67.64;100182.91;5029903;28;20033;-84
2021/10/26 07:40:04;;;;;;;0.00;0.00;;;;;;;9.80;66.47;100177.00;5029618;28;20061;-84
2021/10/26 07:42:30;;;;;;;0.00;0.00;;;;;;;9.73;66.87;100174.50;5029675;28;20041;-84
2021/10/26 07:44:56;;;;;;;0.00;0.00;;;;;;;9.68;66.50;100169.06;5029615;28;20036;-85
2021/10/26 07:47:23;;;;;;;0.00;0.00;;;;;;;9.71;66.77;100176.59;5029816;28;20025;-84
2021/10/26 07:49:50;;;;;;;0.30;0.30;;;;;;;9.72;66.72;100175.53;5029764;28;20033;-83
2021/10/26 07:52:17;;;;;;;0.00;0.00;;;;;;;9.65;65.35;100176.75;5029522;28;20039;-83
2021/10/26 07:54:49;;;;;;;0.00;0.00;;;;;;;9.57;65.16;100177.94;5029753;28;20398;-83
2021/10/26 07:57:15;;;;;;;0.00;0.00;;;;;;;9.45;65.00;100162.00;5029379;28;20037;-83
2021/10/26 07:59:43;;;;;;;0.00;0.00;;;;;;;9.45;66.58;100162.00;5029674;28;20397;-84
2021/10/26 08:02:13;;;;;;;0.08;0.08;;;;;;;9.40;65.32;100152.06;5029544;28;20029;-84
2021/10/26 08:04:39;;;;;;;0.00;0.00;;;;;;;9.45;65.78;100165.47;5029650;28;20080;-84
2021/10/26 08:07:09;;;;;;;0.00;0.00;;;;;;;9.53;66.64;100161.63;5029099;28;20117;-84
2021/10/26 08:09:35;;;;;;;0.00;0.00;;;;;;;9.52;66.59;100152.00;5029526;28;20028;-84
2021/10/26 08:12:00;;;;;;;0.65;0.65;;;;;;;9.57;65.00;100156.59;5029573;28;20033;-84
2021/10/26 08:14:26;;;;;;;0.55;0.55;;;;;;;9.58;65.33;100145.69;5032112;28;20505;-84
2021/10/26 08:16:52;;;;;;;0.70;0.70;;;;;;;9.63;65.52;100149.47;5033016;28;20034;-84
2021/10/26 08:19:17;;;;;;;0.57;0.57;;;;;;;9.57;64.46;100146.72;5032268;28;20032;-85
2021/10/26 08:21:43;;;;;;;0.00;0.00;;;;;;;9.69;64.57;100157.34;5029761;28;20026;-85
2021/10/26 08:24:09;;;;;;;0.32;0.32;;;;;;;9.67;63.61;100138.06;5029449;28;20032;-84
2021/10/26 08:26:40;;;;;;;0.30;0.30;;;;;;;9.77;64.12;100138.22;5029707;28;20037;-85
2021/10/26 08:32:07;;;;;;;0.20;0.20;;;;;;;9.82;62.43;100145.50;5030646;28;20041;-84
2021/10/26 08:37:13;;;;;;;0.68;0.68;;;;;;;9.84;62.53;100134.56;5033045;28;20026;-84
2021/10/26 08:39:41;;;;;;;9.75;0.43;;;;;;;9.96;63.17;100159.38;5033777;28;20037;-84
2021/10/26 08:42:10;;;;;;;0.10;0.10;;;;;;;9.90;61.71;100155.00;5032229;28;20119;-84
2021/10/26 08:44:36;;;;;;;0.00;0.00;;;;;;;9.75;61.54;100132.34;5033268;28;20490;-83
2021/10/26 08:47:01;;;;;;;0.25;0.25;;;;;;;9.81;61.33;100149.22;5032879;28;20120;-84
2021/10/26 08:49:27;;;;;;;0.15;0.15;;;;;;;9.75;61.97;100137.66;5033408;28;20076;-85
2021/10/26 08:51:54;;;;;;;0.63;0.63;;;;;;;9.73;62.52;100125.63;5033194;28;20069;-84
2021/10/26 08:54:20;;;;;;;0.03;0.03;;;;;;;9.69;61.90;100111.94;5032845;28;20025;-83
2021/10/26 08:56:48;;;;;;;0.00;0.00;;;;;;;9.88;60.76;100139.19;5033022;28;20037;-85
2021/10/26 08:59:19;;;;;;;0.20;0.20;;;;;;;10.02;62.33;100137.00;5032579;28;20101;-85
2021/10/26 09:01:50;;;;;;;0.45;0.43;;;;;;;10.13;61.66;100131.78;5032894;28;20171;-85
2021/10/26 09:04:16;;;;;;;0.30;0.28;;;;;;;10.05;61.80;100117.78;5032369;28;20025;-85
2021/10/26 09:06:55;;;;;;;0.52;0.52;;;;;;;10.18;59.45;100129.19;5032863;28;20029;-85
2021/10/26 09:09:25;;;;;;;0.75;0.75;;;;;;;10.16;60.96;100123.28;5032576;28;20061;-84
2021/10/26 09:17:49;;;;;;;0.30;0.30;;;;;;;10.22;61.03;100120.44;5033784;28;20091;-83
2021/10/26 09:20:21;;;;;;;0.45;0.45;;;;;;;10.24;60.43;100112.97;5032296;28;20535;-83
2021/10/26 09:22:55;;;;;;;0.10;0.10;;;;;;;10.25;61.00;100117.28;5032458;28;20100;-83
2021/10/26 09:25:32;;;;;;;0.20;0.20;;;;;;;10.29;61.06;100114.91;5031952;28;20561;-83
2021/10/26 09:28:16;;;;;;;0.00;0.00;;;;;;;10.41;58.92;100125.50;5032432;28;20029;-84
2021/10/26 09:30:56;;;;;;;0.05;0.05;;;;;;;10.36;57.98;100104.03;5032170;28;20029;-84
2021/10/26 09:33:37;;;;;;;0.00;0.00;;;;;;;10.43;58.06;100106.56;5032076;28;20048;-83
2021/10/26 09:36:23;;;;;;;2.50;0.65;;;;;;;10.46;59.20;100093.50;5031425;28;20029;-82
2021/10/26 09:39:03;;;;;;;0.25;0.25;;;;;;;10.56;58.77;100096.28;5032242;28;20057;-83
2021/10/26 09:41:31;;;;;;;0.05;0.05;;;;;;;10.61;60.04;100092.03;5031773;28;20194;-83
2021/10/26 09:44:34;;;;;;;0.20;0.20;;;;;;;10.64;59.74;100092.34;5031919;28;20075;-83
2021/10/26 09:47:02;;;;;;;0.43;0.43;;;;;;;10.64;58.96;100068.28;4990668;28;20042;-83
2021/10/26 09:49:34;;;;;;;0.15;0.15;;;;;;;10.68;57.47;100076.59;5031470;28;20025;-84
2021/10/26 09:52:11;;;;;;;0.10;0.10;;;;;;;10.58;57.97;100063.94;5031840;28;20029;-83
2021/10/26 09:54:37;;;;;;;0.30;0.30;;;;;;;10.67;58.55;100067.78;5031970;28;20461;-84
2021/10/26 09:57:06;;;;;;;1.25;0.52;;;;;;;10.66;59.70;100060.81;5031617;28;20033;-84
2021/10/26 09:59:37;;;;;;;0.05;0.05;;;;;;;10.71;57.95;100057.38;5031707;28;20038;-83
2021/10/26 10:02:03;;;;;;;0.00;0.00;;;;;;;10.70;59.67;100053.09;5031540;28;20025;-83
2021/10/26 10:04:33;;;;;;;0.00;0.00;;;;;;;10.67;58.73;100046.38;5031531;28;20437;-84
2021/10/26 10:06:59;;;;;;;0.05;0.05;;;;;;;10.64;59.25;100030.81;5031417;28;20032;-83
2021/10/26 10:09:25;;;;;;;0.10;0.10;;;;;;;10.69;59.15;100033.56;5031396;28;20034;-84
2021/10/26 10:12:07;;;;;;;0.45;0.45;;;;;;;10.72;59.66;100027.69;5031688;28;20094;-84
2021/10/26 10:14:37;;;;;;;0.00;0.00;;;;;;;10.79;60.22;100027.50;5048160;28;20421;-84
2021/10/26 10:17:13;;;;;;;0.13;0.13;;;;;;;10.80;58.60;100026.44;5031410;28;20124;-85
2021/10/26 10:19:40;;;;;;;0.85;0.85;;;;;;;10.85;59.23;100028.34;5031441;28;20029;-85
2021/10/26 10:22:09;;;;;;;0.10;0.10;;;;;;;10.84;59.56;100010.66;5031173;28;20041;-85
2021/10/26 10:24:42;;;;;;;0.95;0.32;;;;;;;10.93;58.15;100019.06;5031253;28;20029;-86
2021/10/26 10:27:09;;;;;;;0.10;0.10;;;;;;;10.89;57.61;100014.22;5030811;28;20509;-85
2021/10/26 10:29:40;;;;;;;0.00;0.00;;;;;;;10.93;57.52;100017.19;5031127;28;20030;-85
2021/10/26 10:32:06;;;;;;;0.00;0.00;;;;;;;10.99;58.24;100010.81;5030767;28;20033;-85
2021/10/26 10:34:33;;;;;;;0.28;0.28;;;;;;;11.01;57.55;100000.66;5031261;28;20029;-85
2021/10/26 10:37:00;;;;;;;0.00;0.00;;;;;;;11.11;57.61;100004.47;5031144;28;20064;-85
2021/10/26 10:39:34;;;;;;;0.85;0.52;;;;;;;11.18;57.85;100016.59;5030876;28;20048;-85
2021/10/26 10:42:14;;;;;;;0.00;0.00;;;;;;;11.18;57.40;99997.03;5030790;28;20046;-85
2021/10/26 10:44:40;;;;;;;2.22;0.75;;;;;;;11.13;56.91;99980.94;5030910;28;20036;-85
2021/10/26 10:47:27;;;;;;;0.13;0.13;;;;;;;11.23;56.17;100002.44;5030682;28;20037;-84
2021/10/26 10:49:53;;;;;;;0.10;0.10;;;;;;;11.21;56.63;100002.69;5030397;28;20509;-85
2021/10/26 10:52:21;;;;;;;0.68;0.68;;;;;;;11.28;56.78;99999.81;5030532;28;20038;-83
2021/10/26 10:54:53;;;;;;;0.03;0.03;;;;;;;11.29;55.78;99992.56;5030583;28;20025;-83
2021/10/26 10:57:39;;;;;;;0.00;0.00;;;;;;;11.35;56.54;100002.25;5030756;28;20388;-83
2021/10/26 11:00:12;;;;;;;0.00;0.00;;;;;;;11.33;56.62;99980.28;5029922;28;20030;-85
2021/10/26 11:02:40;;;;;;;0.10;0.10;;;;;;;11.51;55.79;99998.63;5030645;28;20048;-85
2021/10/26 11:05:06;;;;;;;;;;;;;;;11.57;55.17;99987.94;5030727;28;20170;-84
2021/10/26 11:07:43;;;;;;;0.00;0.00;;;;;;;11.53;54.04;99975.06;5030497;28;20011;-84
2021/10/26 11:10:10;;;;;;;0.52;0.52;;;;;;;11.52;54.86;99960.06;5030180;28;20120;-83
2021/10/26 11:12:37;;;;;;;0.10;0.10;;;;;;;11.67;55.63;99966.56;5030346;28;20572;-84
2021/10/26 11:15:34;;;;;;;1.95;0.52;;;;;;;11.62;55.31;99956.63;5030513;28;20076;-83
2021/10/26 11:18:00;;;;;;;0.10;0.10;;;;;;;11.79;56.21;99960.97;5029109;28;20072;-85
2021/10/26 11:20:25;;;;;;;0.30;0.30;;;;;;;11.90;56.89;99956.47;5029993;28;20088;-85
2021/10/26 11:23:02;;;;;;;0.00;0.00;;;;;;;11.96;55.86;99945.53;5030276;28;20049;-84
2021/10/26 11:25:27;;;;;;;0.30;0.30;;;;;;;11.92;56.68;99932.91;5029835;28;20065;-84
2021/10/26 11:27:57;;;;;;;0.82;0.77;;;;;;;12.00;56.41;99935.09;5029896;28;20052;-85
2021/10/26 11:30:28;;;;;;;0.00;0.00;;;;;;;12.01;56.50;99934.84;5029642;28;20030;-84
2021/10/26 11:33:08;;;;;;;0.00;0.00;;;;;;;12.15;56.54;99943.16;5030099;28;20025;-83
2021/10/26 11:35:47;;;;;;;0.10;0.10;;;;;;;12.03;55.12;99915.00;5029965;28;20029;-85
2021/10/26 11:38:14;;;;;;;0.20;0.20;;;;;;;12.07;56.24;99924.94;5029827;28;20025;-85
2021/10/26 11:41:00;;;;;;;0.00;0.00;;;;;;;12.11;56.18;99912.59;5030023;28;20124;-84
2021/10/26 11:43:30;;;;;;;4.13;0.95;;;;;;;12.22;55.70;99915.28;5029768;28;20048;-84
2021/10/26 11:46:03;;;;;;;0.10;0.10;;;;;;;12.27;55.90;99907.28;5029961;28;20048;-85
2021/10/26 11:49:01;;;;;;;0.10;0.10;;;;;;;12.34;56.00;99899.78;5029784;28;20029;-85
2021/10/26 11:51:27;;;;;;;;;;;;;;;12.42;55.27;99903.81;5030186;28;20171;-83